Time;durP1;ratioP1;P1;durP2;ratioP2;P2;SDS_P1;SDS_P2;PMS_P1;PMS_P2;Temp;Humidity;BMP_temperature;BMP_pressure;BME280_temperature;BME280_humidity;BME280_pressure;Samples;Min_cycle;Max_cycle;Signal;HPM_P1;HPM_P2
2022/03/28 00:00:59;;;;;;;39.55;24.45;;;;;;;-0.61;100.00;100050.22;2082130;28;20227;-72
2022/03/28 00:02:01;;;;;;;32.58;24.42;;;;;;;-0.61;100.00;100054.63;2089974;28;20183;-72
2022/03/28 00:03:02;;;;;;;40.95;24.92;;;;;;;-0.64;100.00;100050.59;2089989;28;20195;-72
2022/03/28 00:04:06;;;;;;;42.58;26.38;;;;;;;-0.67;100.00;100045.75;2090059;28;20274;-72
2022/03/28 00:05:09;;;;;;;39.38;25.17;;;;;;;-0.68;100.00;100044.16;2090249;28;20241;-72
2022/03/28 00:06:11;;;;;;;41.25;24.90;;;;;;;-0.68;100.00;100044.16;2081719;28;20215;-72
2022/03/28 00:07:12;;;;;;;40.55;24.30;;;;;;;-0.70;100.00;100037.47;2081709;28;20196;-72
2022/03/28 00:08:14;;;;;;;41.13;25.48;;;;;;;-0.73;100.00;100035.25;2090076;28;20182;-72
2022/03/28 00:09:16;;;;;;;34.13;24.75;;;;;;;-0.73;100.00;100037.88;2090782;28;20187;-72
2022/03/28 00:10:18;;;;;;;40.57;25.30;;;;;;;-0.74;100.00;100034.44;2090815;28;20195;-72
2022/03/28 00:11:19;;;;;;;43.25;26.08;;;;;;;-0.77;100.00;100034.06;2090473;28;20513;-72
2022/03/28 00:12:21;;;;;;;44.33;26.48;;;;;;;-0.79;100.00;100021.13;2090643;28;20191;-72
2022/03/28 00:13:22;;;;;;;40.78;27.58;;;;;;;-0.78;100.00;100033.25;2089934;28;20195;-72
2022/03/28 00:14:25;;;;;;;42.63;28.17;;;;;;;-0.80;100.00;100024.75;2089943;28;20191;-72
2022/03/28 00:15:30;;;;;;;42.65;27.80;;;;;;;-0.79;100.00;100030.78;2090695;28;20187;-72
2022/03/28 00:16:32;;;;;;;45.90;27.13;;;;;;;-0.82;100.00;100031.19;2090573;28;20220;-71
2022/03/28 00:17:36;;;;;;;40.05;25.65;;;;;;;-0.83;100.00;100025.16;2090560;28;20206;-72
2022/03/28 00:18:38;;;;;;;40.60;26.45;;;;;;;-0.87;100.00;100018.69;2089750;28;20202;-72
2022/03/28 00:19:39;;;;;;;44.63;26.45;;;;;;;-0.85;100.00;100029.78;2081654;28;20335;-72
2022/03/28 00:20:42;;;;;;;39.38;26.05;;;;;;;-0.85;100.00;100021.94;2089957;28;20211;-72
2022/03/28 00:21:44;;;;;;;48.25;26.85;;;;;;;-0.87;100.00;100014.28;2089132;28;20215;-72
2022/03/28 00:22:47;;;;;;;42.50;27.63;;;;;;;-0.88;100.00;100024.94;2089876;28;20680;-73
2022/03/28 00:23:51;;;;;;;46.08;28.17;;;;;;;-0.87;100.00;100021.31;2089805;28;20274;-72
2022/03/28 00:24:53;;;;;;;40.08;26.95;;;;;;;-0.86;100.00;100028.19;2090106;28;20194;-72
2022/03/28 00:25:55;;;;;;;40.40;26.73;;;;;;;-0.87;100.00;100023.91;2089823;28;20282;-72
2022/03/28 00:26:56;;;;;;;36.92;25.33;;;;;;;-0.86;100.00;100022.94;2081235;28;20203;-72
2022/03/28 00:27:58;;;;;;;36.90;26.67;;;;;;;-0.84;100.00;100027.97;2089825;28;20657;-72
2022/03/28 00:29:00;;;;;;;44.33;26.55;;;;;;;-0.85;100.00;100019.31;2089774;28;20195;-71
2022/03/28 00:30:04;;;;;;;40.58;26.63;;;;;;;-0.83;100.00;100024.34;2089823;28;20680;-72
2022/03/28 00:31:07;;;;;;;39.75;26.70;;;;;;;-0.83;100.00;100013.88;2090420;28;20590;-73
2022/03/28 00:32:10;;;;;;;50.35;27.25;;;;;;;-0.84;100.00;100013.06;2089926;28;20309;-72
2022/03/28 00:33:13;;;;;;;38.70;26.05;;;;;;;-0.87;100.00;100019.53;2089862;28;20222;-72
2022/03/28 00:34:21;;;;;;;38.42;26.20;;;;;;;-0.83;100.00;100019.13;2090523;28;20187;-72
2022/03/28 00:35:24;;;;;;;46.58;26.75;;;;;;;-0.83;100.00;100019.91;2089711;28;20317;-72
2022/03/28 00:36:26;;;;;;;42.60;25.55;;;;;;;-0.85;100.00;100021.94;2089429;28;20226;-72
2022/03/28 00:37:28;;;;;;;38.65;25.13;;;;;;;-0.85;100.00;100024.56;2090376;28;20202;-72
2022/03/28 00:38:31;;;;;;;40.67;25.65;;;;;;;-0.87;100.00;100021.31;2090555;28;20588;-72
2022/03/28 00:39:36;;;;;;;40.88;26.63;;;;;;;-0.89;100.00;100018.88;2089652;28;20296;-72
2022/03/28 00:40:38;;;;;;;51.08;26.73;;;;;;;-0.90;100.00;100026.94;2089997;28;20213;-72
2022/03/28 00:41:41;;;;;;;38.05;25.95;;;;;;;-0.93;100.00;100015.06;2090399;28;20195;-72
2022/03/28 00:42:42;;;;;;;38.97;26.42;;;;;;;-0.94;100.00;100017.88;2090219;28;20275;-72
2022/03/28 00:43:46;;;;;;;40.65;27.25;;;;;;;-0.95;100.00;100016.28;2090503;28;20618;-72
2022/03/28 00:44:47;;;;;;;42.65;27.65;;;;;;;-0.98;100.00;100011.41;2090291;28;20261;-72
2022/03/28 00:45:50;;;;;;;49.72;27.45;;;;;;;-0.98;100.00;100006.16;2089720;28;20194;-72
2022/03/28 00:46:52;;;;;;;56.25;31.17;;;;;;;-0.99;100.00;100012.41;2089522;28;20242;-72
2022/03/28 00:47:55;;;;;;;51.25;31.13;;;;;;;-1.00;100.00;100011.59;2089772;28;20214;-72
2022/03/28 00:48:57;;;;;;;53.80;31.63;;;;;;;-1.01;100.00;100010.00;2089521;28;20203;-72
2022/03/28 00:49:58;;;;;;;53.72;30.88;;;;;;;-1.00;100.00;100009.00;2081444;28;20253;-72
2022/03/28 00:51:03;;;;;;;51.60;29.88;;;;;;;-0.98;100.00;100012.22;2089173;28;20678;-72
2022/03/28 00:52:08;;;;;;;57.47;30.75;;;;;;;-1.00;100.00;100009.00;2090539;28;20210;-72
2022/03/28 00:53:11;;;;;;;55.78;32.00;;;;;;;-0.98;100.00;100006.16;2089604;28;20213;-72
2022/03/28 00:54:14;;;;;;;53.67;31.83;;;;;;;-0.97;100.00;100013.03;2081747;28;20200;-72
2022/03/28 00:55:15;;;;;;;59.13;32.53;;;;;;;-0.98;100.00;100008.78;2089752;28;20210;-72
2022/03/28 00:56:17;;;;;;;55.47;31.90;;;;;;;-0.97;100.00;100011.22;2090366;28;20215;-72
2022/03/28 00:57:19;;;;;;;58.00;32.30;;;;;;;-0.97;100.00;100007.78;2090342;28;20191;-72
2022/03/28 00:58:21;;;;;;;53.28;31.40;;;;;;;-0.98;100.00;100003.56;2090353;28;20217;-72
2022/03/28 00:59:24;;;;;;;54.42;31.63;;;;;;;-0.99;100.00;100007.97;2090339;28;20217;-72
2022/03/28 01:00:27;;;;;;;56.78;32.25;;;;;;;-1.01;100.00;100003.97;2090479;28;20194;-72
2022/03/28 01:01:30;;;;;;;55.33;30.70;;;;;;;-1.01;100.00;100003.97;2090434;28;20197;-72
2022/03/28 01:02:32;;;;;;;60.70;33.17;;;;;;;-1.03;100.00;100003.34;2090049;28;20286;-72
2022/03/28 01:03:34;;;;;;;56.65;33.47;;;;;;;-1.03;100.00;100003.34;2081396;28;20253;-72
2022/03/28 01:04:37;;;;;;;52.67;30.02;;;;;;;-1.05;100.00;99997.47;2081460;28;20245;-72
2022/03/28 01:05:43;;;;;;;59.95;31.33;;;;;;;-1.09;100.00;99988.41;2081595;28;20187;-72
2022/03/28 01:06:44;;;;;;;53.28;30.23;;;;;;;-1.10;100.00;99992.03;2089470;28;20234;-72
2022/03/28 01:07:46;;;;;;;48.77;29.40;;;;;;;-1.14;100.00;99991.63;2089570;28;20198;-72
2022/03/28 01:08:50;;;;;;;44.22;27.52;;;;;;;-1.15;100.00;99990.00;2089625;28;20653;-72
2022/03/28 01:09:55;;;;;;;52.00;32.70;;;;;;;-1.18;100.00;99982.56;2090456;28;20194;-72
2022/03/28 01:11:01;;;;;;;56.50;32.17;;;;;;;-1.21;100.00;99977.72;2089998;28;20761;-72
2022/03/28 01:12:04;;;;;;;54.17;33.95;;;;;;;-1.23;100.00;99983.13;2081777;28;20223;-72
2022/03/28 01:13:08;;;;;;;57.80;33.00;;;;;;;-1.21;100.00;99975.91;2081603;28;20282;-73
2022/03/28 01:14:10;;;;;;;72.07;36.38;;;;;;;-1.18;100.00;99978.13;2081888;28;20204;-72
2022/03/28 01:15:14;;;;;;;75.32;38.13;;;;;;;-1.18;100.00;99980.75;2089675;28;20189;-72
2022/03/28 01:16:16;;;;;;;67.85;36.33;;;;;;;-1.15;100.00;99976.91;2089427;28;20277;-72
2022/03/28 01:18:47;;;;;;;65.53;37.47;;;;;;;-1.12;100.00;99978.34;2089552;28;20203;-73
2022/03/28 01:19:50;;;;;;;67.50;36.00;;;;;;;-1.10;100.00;99973.72;2089770;28;20175;-72
2022/03/28 01:20:56;;;;;;;65.07;35.05;;;;;;;-1.12;100.00;99971.31;2089663;28;20604;-72
2022/03/28 01:22:00;;;;;;;66.65;36.22;;;;;;;-1.08;100.00;99971.69;2090303;28;20167;-73
2022/03/28 01:23:02;;;;;;;66.03;36.60;;;;;;;-1.06;100.00;99972.31;2090166;28;20192;-72
2022/03/28 01:24:04;;;;;;;78.10;38.03;;;;;;;-1.04;100.00;99965.06;2089499;28;20290;-72
2022/03/28 01:25:08;;;;;;;74.95;39.90;;;;;;;-1.07;100.00;99960.22;2089717;28;20285;-72
2022/03/28 01:26:13;;;;;;;83.90;41.40;;;;;;;-1.03;100.00;99969.31;2090351;28;20187;-72
2022/03/28 01:27:17;;;;;;;82.53;42.88;;;;;;;-1.03;100.00;99956.22;2090247;28;20258;-72
2022/03/28 01:28:20;;;;;;;80.63;42.40;;;;;;;-1.02;100.00;99958.63;2090205;28;20223;-72
2022/03/28 01:29:21;;;;;;;82.22;43.15;;;;;;;-1.05;100.00;99952.97;2089427;28;20530;-72
2022/03/28 01:30:24;;;;;;;88.32;43.97;;;;;;;-1.02;100.00;99952.59;2089607;28;20673;-72
2022/03/28 01:31:28;;;;;;;87.47;42.97;;;;;;;-1.02;100.00;99949.97;2089419;28;20207;-72
2022/03/28 01:32:32;;;;;;;84.63;42.22;;;;;;;-1.03;100.00;99946.53;2081366;28;20226;-72
2022/03/28 01:33:34;;;;;;;78.43;42.33;;;;;;;-1.03;100.00;99948.34;2081551;28;20286;-72
2022/03/28 01:34:38;;;;;;;89.65;43.60;;;;;;;-1.01;100.00;99949.75;2089725;28;20202;-72
2022/03/28 01:35:42;;;;;;;81.57;43.65;;;;;;;-1.01;100.00;99949.75;2090163;28;20195;-72
2022/03/28 01:36:47;;;;;;;93.57;42.90;;;;;;;-1.00;100.00;99953.19;2089868;28;20305;-73
2022/03/28 01:37:49;;;;;;;85.60;44.92;;;;;;;-0.99;100.00;99952.19;2090166;28;20194;-72
2022/03/28 01:38:51;;;;;;;85.13;44.28;;;;;;;-1.00;100.00;99953.19;2090136;28;20191;-72
2022/03/28 01:39:52;;;;;;;85.68;44.00;;;;;;;-1.01;100.00;99955.00;2090170;28;20187;-72
2022/03/28 01:40:54;;;;;;;84.88;44.72;;;;;;;-1.03;100.00;99943.94;2089511;28;20198;-72
2022/03/28 01:41:55;;;;;;;87.50;43.72;;;;;;;-1.01;100.00;99949.75;2081359;28;20238;-72
2022/03/28 01:42:57;;;;;;;85.45;42.88;;;;;;;-1.04;100.00;99938.88;2081143;28;20238;-72
2022/03/28 01:43:59;;;;;;;77.15;41.78;;;;;;;-1.03;100.00;99945.75;2089581;28;20187;-73
2022/03/28 01:45:01;;;;;;;81.82;41.55;;;;;;;-1.05;100.00;99942.50;2089343;28;20202;-72
2022/03/28 01:46:04;;;;;;;79.05;40.85;;;;;;;-1.09;100.00;99941.28;2089788;28;20198;-73
2022/03/28 01:47:06;;;;;;;77.03;38.88;;;;;;;-1.13;100.00;99940.84;2089944;28;20305;-72
2022/03/28 01:48:09;;;;;;;71.95;38.50;;;;;;;-1.20;100.00;99940.06;2090258;28;20195;-72
2022/03/28 01:49:10;;;;;;;80.45;41.40;;;;;;;-1.21;100.00;99938.44;2090138;28;20222;-72
2022/03/28 01:50:12;;;;;;;84.20;43.55;;;;;;;-1.25;100.00;99938.03;2090127;28;20180;-72
2022/03/28 01:51:14;;;;;;;88.30;44.58;;;;;;;-1.28;100.00;99932.38;2089025;28;20223;-72
2022/03/28 01:52:18;;;;;;;82.13;41.42;;;;;;;-1.27;100.00;99934.00;2081233;28;20207;-73
2022/03/28 01:53:22;;;;;;;82.90;41.75;;;;;;;-1.28;100.00;99933.19;2081426;28;20211;-72
2022/03/28 01:54:23;;;;;;;86.93;42.42;;;;;;;-1.30;100.00;99940.44;2089554;28;20274;-72
2022/03/28 01:55:25;;;;;;;84.40;41.50;;;;;;;-1.30;100.00;99932.59;2091661;28;20293;-72
2022/03/28 01:56:26;;;;;;;89.97;42.38;;;;;;;-1.30;100.00;99937.00;2091680;28;20542;-72
2022/03/28 01:57:29;;;;;;;77.13;39.67;;;;;;;-1.32;100.00;99931.94;2091577;28;20218;-72
2022/03/28 01:58:34;;;;;;;76.78;39.28;;;;;;;-1.31;100.00;99938.78;2091597;28;20191;-72
2022/03/28 01:59:35;;;;;;;76.95;40.38;;;;;;;-1.34;100.00;99926.13;2090887;28;20203;-72
2022/03/28 02:00:37;;;;;;;77.03;41.20;;;;;;;-1.32;100.00;99929.34;2082122;28;20570;-72
2022/03/28 02:01:44;;;;;;;81.80;40.80;;;;;;;-1.31;100.00;99930.13;2091182;28;20191;-72
2022/03/28 02:02:47;;;;;;;76.88;40.95;;;;;;;-1.33;100.00;99932.97;2091226;28;20662;-72
2022/03/28 02:03:48;;;;;;;72.07;38.97;;;;;;;-1.33;100.00;99922.50;2082728;28;20242;-72
2022/03/28 02:04:50;;;;;;;84.30;39.90;;;;;;;-1.31;100.00;99928.31;2082790;28;20203;-72
2022/03/28 02:05:52;;;;;;;86.38;42.17;;;;;;;-1.33;100.00;99924.31;2090547;28;20198;-72
2022/03/28 02:06:54;;;;;;;78.07;41.13;;;;;;;-1.35;100.00;99934.97;2091671;28;20191;-73
2022/03/28 02:07:57;;;;;;;77.20;39.47;;;;;;;-1.36;100.00;99935.97;2091040;28;20238;-72
2022/03/28 02:09:01;;;;;;;89.43;41.00;;;;;;;-1.42;100.00;99927.09;2082741;28;20233;-72
2022/03/28 02:10:03;;;;;;;77.18;41.03;;;;;;;-1.45;100.00;99935.34;2090981;28;20199;-73
2022/03/28 02:11:05;;;;;;;76.40;39.85;;;;;;;-1.44;100.00;99928.31;2090777;28;20195;-72
2022/03/28 02:12:09;;;;;;;77.05;40.88;;;;;;;-1.43;100.00;99924.69;2090851;28;20620;-72
2022/03/28 02:13:11;;;;;;;72.80;40.25;;;;;;;-1.43;100.00;99927.28;2091511;28;20278;-72
2022/03/28 02:14:12;;;;;;;76.28;39.85;;;;;;;-1.40;100.00;99933.94;2091563;28;20202;-72
2022/03/28 02:15:16;;;;;;;73.18;40.20;;;;;;;-1.39;100.00;99918.06;2090781;28;20195;-73
2022/03/28 02:16:17;;;;;;;71.85;39.33;;;;;;;-1.37;100.00;99934.38;2090905;28;20732;-73
2022/03/28 02:17:20;;;;;;;78.33;39.53;;;;;;;-1.35;100.00;99921.88;2090765;28;20571;-73
2022/03/28 02:18:22;;;;;;;73.20;39.53;;;;;;;-1.34;100.00;99918.25;2082617;28;20944;-72
2022/03/28 02:19:25;;;;;;;71.50;37.45;;;;;;;-1.31;100.00;99919.66;2090865;28;20657;-72
2022/03/28 02:20:27;;;;;;;76.90;40.30;;;;;;;-1.31;100.00;99915.25;2091192;28;20213;-73
2022/03/28 02:21:29;;;;;;;77.15;39.13;;;;;;;-1.33;100.00;99916.44;2091127;28;20219;-72
2022/03/28 02:22:30;;;;;;;69.75;39.55;;;;;;;-1.33;100.00;99925.09;2091360;28;20191;-72
2022/03/28 02:23:36;;;;;;;80.77;39.53;;;;;;;-1.31;100.00;99919.66;2091459;28;20641;-72
2022/03/28 02:24:39;;;;;;;77.00;38.67;;;;;;;-1.31;100.00;99917.06;2090701;28;20195;-73
2022/03/28 02:25:44;;;;;;;80.07;41.35;;;;;;;-1.32;100.00;99926.72;2082504;28;20555;-73
2022/03/28 02:26:46;;;;;;;73.80;39.42;;;;;;;-1.33;100.00;99914.63;2083192;28;20208;-72
2022/03/28 02:27:49;;;;;;;81.05;40.97;;;;;;;-1.34;100.00;99922.69;2082638;28;20266;-73
2022/03/28 02:28:50;;;;;;;80.63;40.85;;;;;;;-1.36;100.00;99916.84;2082517;28;20210;-72
2022/03/28 02:29:53;;;;;;;75.50;40.75;;;;;;;-1.37;100.00;99913.44;2090895;28;20194;-72
2022/03/28 02:30:54;;;;;;;81.35;40.30;;;;;;;-1.42;100.00;99911.38;2091375;28;20191;-72
2022/03/28 02:31:56;;;;;;;81.05;40.72;;;;;;;-1.41;100.00;99917.44;2091296;28;20194;-73
2022/03/28 02:32:59;;;;;;;83.45;41.08;;;;;;;-1.42;100.00;99918.44;2090435;28;20253;-72
2022/03/28 02:34:02;;;;;;;82.45;41.40;;;;;;;-1.46;100.00;99914.63;2090743;28;20198;-73
2022/03/28 02:35:06;;;;;;;80.55;40.67;;;;;;;-1.48;100.00;99912.19;2091333;28;20614;-72
2022/03/28 02:36:07;;;;;;;84.75;40.83;;;;;;;-1.48;100.00;99914.81;2091017;28;20680;-72
2022/03/28 02:37:10;;;;;;;75.00;39.78;;;;;;;-1.50;100.00;99916.78;2091422;28;20206;-73
2022/03/28 02:38:11;;;;;;;83.65;41.22;;;;;;;-1.50;100.00;99916.00;2091298;28;20198;-72
2022/03/28 02:39:17;;;;;;;78.20;41.63;;;;;;;-1.53;100.00;99913.78;2090495;28;20203;-72
2022/03/28 02:40:19;;;;;;;77.50;38.65;;;;;;;-1.53;100.00;99913.78;2090718;28;20186;-73
2022/03/28 02:41:20;;;;;;;76.50;40.30;;;;;;;-1.53;100.00;99908.53;2091283;28;20603;-73
2022/03/28 02:42:23;;;;;;;70.35;39.80;;;;;;;-1.57;100.00;99912.53;2091497;28;20664;-73
2022/03/28 02:43:25;;;;;;;81.43;41.03;;;;;;;-1.60;100.00;99905.91;2091289;28;20565;-73
2022/03/28 02:44:29;;;;;;;76.10;40.25;;;;;;;-1.60;100.00;99910.31;2091383;28;20187;-73
2022/03/28 02:45:33;;;;;;;72.57;39.97;;;;;;;-1.63;100.00;99900.25;2091177;28;20187;-73
2022/03/28 02:46:34;;;;;;;86.88;39.97;;;;;;;-1.66;100.00;99898.00;2091019;28;20600;-73
2022/03/28 02:47:37;;;;;;;71.82;40.15;;;;;;;-1.68;100.00;99894.78;2090575;28;20243;-73
2022/03/28 02:48:39;;;;;;;71.60;39.45;;;;;;;-1.69;100.00;99895.81;2090649;28;20199;-73
2022/03/28 02:49:41;;;;;;;79.78;40.38;;;;;;;-1.73;100.00;99896.22;2091402;28;20193;-73
2022/03/28 02:50:45;;;;;;;73.40;40.42;;;;;;;-1.73;100.00;99896.22;2091207;28;20553;-73
2022/03/28 02:51:48;;;;;;;77.70;39.63;;;;;;;-1.78;100.00;99893.34;2091131;28;20302;-73
2022/03/28 02:52:50;;;;;;;78.60;41.38;;;;;;;-1.82;100.00;99891.34;2091094;28;20290;-73
2022/03/28 02:53:55;;;;;;;80.90;41.63;;;;;;;-1.83;100.00;99887.09;2090415;28;20195;-73
2022/03/28 02:54:57;;;;;;;77.65;41.08;;;;;;;-1.85;100.00;99883.88;2090607;28;20721;-73
2022/03/28 02:56:00;;;;;;;78.82;39.67;;;;;;;-1.89;100.00;99888.69;2091076;28;20225;-73
2022/03/28 02:57:01;;;;;;;81.93;41.38;;;;;;;-1.90;100.00;99886.28;2090359;28;20213;-73
2022/03/28 02:58:03;;;;;;;82.78;41.83;;;;;;;-1.93;100.00;99884.84;2090587;28;20554;-73
2022/03/28 02:59:04;;;;;;;77.10;41.58;;;;;;;-1.91;100.00;99885.47;2090529;28;20222;-73
2022/03/28 03:00:10;;;;;;;81.93;41.03;;;;;;;-1.92;100.00;99881.22;2090539;28;20237;-73
2022/03/28 03:01:11;;;;;;;80.07;41.72;;;;;;;-1.93;100.00;99882.22;2090404;28;20298;-73
2022/03/28 03:02:13;;;;;;;79.43;42.10;;;;;;;-1.94;100.00;99872.75;2090551;28;20183;-73
2022/03/28 03:03:14;;;;;;;81.15;42.22;;;;;;;-1.94;100.00;99870.16;2091094;28;20195;-73
2022/03/28 03:04:16;;;;;;;78.53;42.75;;;;;;;-1.96;100.00;99872.16;2090304;28;20678;-73
2022/03/28 03:05:19;;;;;;;79.50;42.63;;;;;;;-1.95;100.00;99872.97;2090382;28;20199;-73
2022/03/28 03:06:20;;;;;;;77.32;40.38;;;;;;;-1.99;100.00;99875.16;2090123;28;20277;-72
2022/03/28 03:07:22;;;;;;;83.70;42.20;;;;;;;-1.97;100.00;99874.97;2090337;28;20210;-73
2022/03/28 03:08:24;;;;;;;82.95;42.30;;;;;;;-1.99;100.00;99877.78;2090416;28;20229;-73
2022/03/28 03:09:27;;;;;;;81.20;41.63;;;;;;;-2.01;100.00;99877.94;2091058;28;20213;-73
2022/03/28 03:10:30;;;;;;;75.05;41.50;;;;;;;-2.05;100.00;99868.09;2091063;28;20198;-73
2022/03/28 03:11:32;;;;;;;74.70;40.10;;;;;;;-2.04;100.00;99877.53;2090958;28;20714;-73
2022/03/28 03:12:34;;;;;;;80.28;40.55;;;;;;;-2.02;100.00;99873.72;2090951;28;20198;-73
2022/03/28 03:13:36;;;;;;;87.68;43.55;;;;;;;-2.03;100.00;99864.28;2090334;28;20203;-73
2022/03/28 03:14:39;;;;;;;87.72;43.97;;;;;;;-2.01;100.00;99875.34;2090404;28;20187;-72
2022/03/28 03:15:42;;;;;;;86.13;43.17;;;;;;;-2.03;100.00;99879.16;2091207;28;20191;-73
2022/03/28 03:16:45;;;;;;;85.85;43.40;;;;;;;-2.06;100.00;99871.72;2090953;28;20677;-73
2022/03/28 03:17:48;;;;;;;83.88;42.85;;;;;;;-2.05;100.00;99876.75;2091048;28;20298;-73
2022/03/28 03:18:50;;;;;;;78.65;42.38;;;;;;;-2.08;100.00;99873.72;2090276;28;20207;-73
2022/03/28 03:19:52;;;;;;;74.40;41.25;;;;;;;-2.08;100.00;99874.53;2082073;28;20200;-73
2022/03/28 03:20:57;;;;;;;82.47;40.28;;;;;;;-2.07;100.00;99878.75;2081556;28;20196;-73
2022/03/28 03:21:58;;;;;;;77.97;40.05;;;;;;;-2.06;100.00;99874.31;2090615;28;20180;-73
2022/03/28 03:23:00;;;;;;;77.10;39.70;;;;;;;-2.05;100.00;99868.09;2090244;28;20286;-73
2022/03/28 03:24:02;;;;;;;78.03;40.30;;;;;;;-2.04;100.00;99874.94;2090378;28;20426;-73
2022/03/28 03:25:05;;;;;;;76.32;40.10;;;;;;;-2.00;100.00;99876.13;2090184;28;20282;-73
2022/03/28 03:26:07;;;;;;;73.55;39.63;;;;;;;-1.96;100.00;99877.38;2082370;28;20584;-73
2022/03/28 03:27:19;;;;;;;84.43;41.25;;;;;;;-1.94;100.00;99872.75;2082105;28;20199;-73
2022/03/28 03:28:21;;;;;;;77.75;40.63;;;;;;;-1.85;100.00;99883.88;2083811;28;20522;-73
2022/03/28 03:29:24;;;;;;;72.55;38.70;;;;;;;-1.85;100.00;99879.44;2090253;28;20195;-73
2022/03/28 03:30:27;;;;;;;75.85;40.55;;;;;;;-1.85;100.00;99882.06;2090150;28;20207;-73
2022/03/28 03:31:29;;;;;;;76.75;40.58;;;;;;;-1.84;100.00;99875.00;2090276;28;20297;-73
2022/03/28 03:32:31;;;;;;;77.13;40.65;;;;;;;-1.81;100.00;99877.25;2090786;28;20716;-73
2022/03/28 03:33:33;;;;;;;80.18;38.90;;;;;;;-1.81;100.00;99875.44;2089477;28;20656;-73
2022/03/28 03:34:35;;;;;;;88.57;40.85;;;;;;;-1.76;100.00;99880.06;2082041;28;20265;-73
2022/03/28 03:35:38;;;;;;;72.72;38.58;;;;;;;-1.75;100.00;99882.50;2082015;28;20203;-73
2022/03/28 03:36:40;;;;;;;77.88;40.03;;;;;;;-1.73;100.00;99877.91;2089857;28;20230;-73
2022/03/28 03:37:42;;;;;;;84.03;40.55;;;;;;;-1.74;100.00;99876.28;2090844;28;20561;-73
2022/03/28 03:38:44;;;;;;;78.57;38.67;;;;;;;-1.74;100.00;99878.06;2090947;28;20684;-73
2022/03/28 03:39:46;;;;;;;77.70;40.20;;;;;;;-1.75;100.00;99868.59;2090416;28;20207;-73
2022/03/28 03:40:49;;;;;;;92.57;42.45;;;;;;;-1.75;100.00;99877.25;2090325;28;20689;-72
2022/03/28 03:41:51;;;;;;;79.68;42.25;;;;;;;-1.79;100.00;99873.44;2090083;28;20688;-72
2022/03/28 03:42:54;;;;;;;80.13;42.92;;;;;;;-1.79;100.00;99878.66;2090306;28;20187;-73
2022/03/28 03:44:00;;;;;;;92.93;44.30;;;;;;;-1.82;100.00;99873.03;2090127;28;20665;-73
2022/03/28 03:45:04;;;;;;;89.50;43.78;;;;;;;-1.83;100.00;99871.41;2082495;28;20199;-73
2022/03/28 03:46:05;;;;;;;89.43;42.47;;;;;;;-1.82;100.00;99871.22;2082046;28;20215;-73
2022/03/28 03:47:07;;;;;;;81.53;42.50;;;;;;;-1.81;100.00;99869.41;2090078;28;20278;-73
2022/03/28 03:48:10;;;;;;;81.72;43.40;;;;;;;-1.82;100.00;99873.84;2090678;28;20195;-73
2022/03/28 03:49:13;;;;;;;74.20;40.65;;;;;;;-1.84;100.00;99870.59;2090387;28;20195;-73
2022/03/28 03:50:14;;;;;;;81.45;40.72;;;;;;;-1.78;100.00;99872.44;2090159;28;20187;-72
2022/03/28 03:51:17;;;;;;;86.55;42.85;;;;;;;-1.81;100.00;99865.00;2089620;28;20257;-72
2022/03/28 03:52:19;;;;;;;82.43;41.10;;;;;;;-1.79;100.00;99862.16;2090168;28;20195;-72
2022/03/28 03:53:21;;;;;;;80.63;41.03;;;;;;;-1.76;100.00;99867.81;2089850;28;20758;-73
2022/03/28 03:54:24;;;;;;;78.40;42.05;;;;;;;-1.78;100.00;99867.19;2090068;28;20195;-72
2022/03/28 03:55:28;;;;;;;71.32;39.97;;;;;;;-1.74;100.00;99868.44;2090722;28;20186;-73
2022/03/28 03:56:34;;;;;;;79.53;40.00;;;;;;;-1.75;100.00;99864.19;2090387;28;20730;-73
2022/03/28 03:57:39;;;;;;;87.55;41.22;;;;;;;-1.73;100.00;99867.44;2090121;28;20210;-73
2022/03/28 03:58:41;;;;;;;81.30;43.10;;;;;;;-1.75;100.00;99858.16;2090732;28;20218;-73
2022/03/28 03:59:42;;;;;;;82.30;41.38;;;;;;;-1.72;100.00;99855.97;2089938;28;20207;-73
2022/03/28 04:00:44;;;;;;;79.93;40.43;;;;;;;-1.73;100.00;99862.19;2090090;28;20187;-73
2022/03/28 04:01:47;;;;;;;71.10;38.42;;;;;;;-1.74;100.00;99859.75;2090585;28;20472;-73
2022/03/28 04:02:50;;;;;;;82.28;40.13;;;;;;;-1.73;100.00;99861.41;2090333;28;20226;-73
2022/03/28 04:03:52;;;;;;;76.45;40.75;;;;;;;-1.74;100.00;99862.38;2090042;28;20191;-72
2022/03/28 04:04:54;;;;;;;75.05;39.55;;;;;;;-1.79;100.00;99857.75;2090620;28;20195;-73
2022/03/28 04:05:56;;;;;;;74.32;39.45;;;;;;;-1.77;100.00;99868.81;2089267;28;20241;-72
2022/03/28 04:06:57;;;;;;;74.97;40.60;;;;;;;-1.76;100.00;99861.75;2081850;28;20195;-73
2022/03/28 04:08:00;;;;;;;80.17;40.80;;;;;;;-1.77;100.00;99871.44;2089975;28;20191;-73
2022/03/28 04:09:01;;;;;;;77.18;40.33;;;;;;;-1.79;100.00;99862.16;2090637;28;20715;-72
2022/03/28 04:10:04;;;;;;;88.60;40.50;;;;;;;-1.79;100.00;99857.75;2089933;28;20576;-73
2022/03/28 04:11:06;;;;;;;71.35;40.08;;;;;;;-1.81;100.00;99859.75;2081914;28;20207;-73
2022/03/28 04:12:09;;;;;;;76.82;39.70;;;;;;;-1.80;100.00;99865.78;2080900;28;20199;-73
2022/03/28 04:13:15;;;;;;;78.20;42.08;;;;;;;-1.83;100.00;99853.88;2089869;28;20175;-73
2022/03/28 04:14:17;;;;;;;78.25;40.92;;;;;;;-1.83;100.00;99851.28;2089896;28;20741;-73
2022/03/28 04:15:20;;;;;;;83.10;41.42;;;;;;;-1.79;100.00;99862.97;2089892;28;20203;-73
2022/03/28 04:16:21;;;;;;;78.35;39.70;;;;;;;-1.80;100.00;99845.66;2081976;28;20210;-73
2022/03/28 04:17:26;;;;;;;77.72;40.08;;;;;;;-1.80;100.00;99850.91;2081312;28;20192;-72
2022/03/28 04:18:28;;;;;;;77.28;38.83;;;;;;;-1.76;100.00;99856.53;2090023;28;20175;-73
2022/03/28 04:19:32;;;;;;;75.55;39.70;;;;;;;-1.79;100.00;99852.50;2090540;28;20187;-72
2022/03/28 04:20:35;;;;;;;78.90;40.85;;;;;;;-1.75;100.00;99855.53;2089856;28;20206;-73
2022/03/28 04:21:38;;;;;;;77.00;40.97;;;;;;;-1.78;100.00;99856.75;2081535;28;20224;-72
2022/03/28 04:22:41;;;;;;;76.75;40.03;;;;;;;-1.78;100.00;99858.53;2081667;28;20212;-73
2022/03/28 04:23:42;;;;;;;76.97;40.33;;;;;;;-1.80;100.00;99861.38;2090097;28;20682;-72
2022/03/28 04:24:46;;;;;;;78.40;41.13;;;;;;;-1.84;100.00;99854.91;2090720;28;20591;-73
2022/03/28 04:25:47;;;;;;;86.65;41.35;;;;;;;-1.84;100.00;99854.91;2090702;28;20190;-73
2022/03/28 04:26:52;;;;;;;76.10;40.58;;;;;;;-1.86;100.00;99856.91;2090569;28;20269;-72
2022/03/28 04:27:54;;;;;;;80.00;41.90;;;;;;;-1.86;100.00;99854.28;2089731;28;20206;-73
2022/03/28 04:28:57;;;;;;;86.28;41.88;;;;;;;-1.86;100.00;99854.28;2089933;28;20191;-73
2022/03/28 04:29:59;;;;;;;76.70;41.15;;;;;;;-1.85;100.00;99850.66;2090440;28;20206;-73
2022/03/28 04:31:00;;;;;;;89.65;43.03;;;;;;;-1.85;100.00;99855.09;2090461;28;20557;-73
2022/03/28 04:32:03;;;;;;;82.10;42.93;;;;;;;-1.87;100.00;99854.50;2090548;28;20183;-72
2022/03/28 04:33:09;;;;;;;86.20;43.28;;;;;;;-1.87;100.00;99857.09;2090282;28;20211;-73
2022/03/28 04:34:11;;;;;;;97.25;43.65;;;;;;;-1.86;100.00;99850.88;2089792;28;20719;-73
2022/03/28 04:35:13;;;;;;;83.10;43.15;;;;;;;-1.89;100.00;99853.88;2081603;28;20203;-73
2022/03/28 04:36:15;;;;;;;75.78;41.85;;;;;;;-1.86;100.00;99850.88;2081057;28;20247;-73
2022/03/28 04:37:17;;;;;;;86.43;42.80;;;;;;;-1.83;100.00;99855.69;2081612;28;20665;-72
2022/03/28 04:38:24;;;;;;;82.87;42.97;;;;;;;-1.83;100.00;99848.66;2089884;28;20615;-73
2022/03/28 04:39:26;;;;;;;81.85;43.60;;;;;;;-1.80;100.00;99844.88;2089726;28;20523;-73
2022/03/28 04:40:29;;;;;;;84.63;43.65;;;;;;;-1.81;100.00;99849.28;2090017;28;20198;-72
2022/03/28 04:41:31;;;;;;;87.05;42.97;;;;;;;-1.80;100.00;99852.72;2089765;28;20210;-73
2022/03/28 04:42:34;;;;;;;84.30;43.78;;;;;;;-1.82;100.00;99847.69;2089922;28;20187;-72
2022/03/28 04:43:35;;;;;;;87.38;44.10;;;;;;;-1.79;100.00;99852.50;2089312;28;20575;-73
2022/03/28 04:44:39;;;;;;;92.18;43.42;;;;;;;-1.79;100.00;99851.72;2081417;28;20203;-73
2022/03/28 04:45:42;;;;;;;83.47;43.22;;;;;;;-1.81;100.00;99841.44;2090025;28;20195;-72